Pagrindinis puslapis
METAR-TAF:

METAR-TAF

Oro uostai :

Dawadmi, Saudo Arabija

platuma: 24-26-59N, ilguma: 044-07-16E, Aukštis: 922 m

Dabartinis oras

Ataskaita buvo paskelbta 3 valandos ir 43 minutes, ne 21:00 UTC
Vėjas 10 kt iš Rytų/Šiaurės Rytų
Temperatūra 28°C
Drėgmė 16%
Slėgis 1010 hPa
Matomumas 10 km arba daugiau
nėra debesų žemiau 1500 m ir nėra kamuolinių lietaus debesų

METAR: OEDM 232100Z 06010KT CAVOK 28/00 Q1010

Laikas: 03:43 (00:43 UTC)

Prognozė

Ataskaita buvo paskelbta 19 valandos ir 43 minutes, ne 05:00 UTC
Prognozė galioja nuo 23 metu 06 UTC su 23 metu 20 UTC
Vėjas 12 kt iš Šiaurės/Šiaurės Vakarų
Matomumas: 7000 m
Tapsmas
nuo 23 metu 16 UTC su 23 metu 18 UTC
Vėjas 3 kt nuo kintamojo kryptimis

TAF: OEDM 230500Z 2306/2320 34012KT 7000 NSC BECMG 2316/2318 VRB03KT

Orai ataskaitas ir orų prognozės (METAR, TAF).

turimą stotys yra geltonos ir raudonos taškus žemėlapyje.

Perkelti pele per norėdami pamatyti stoties vardą.

Tada spustelėkite, norėdami matyti oro stebėjimo ir prognozės.

Norėdami pakeisti žemėlapį: spustelėkite ant žalios mygtukų su juodo kryžiaus žemyn,; žalią mygtuką su brūkšneliu, jei norite nutolinti; arba žalių rodyklių gretimoms žemėlapius.


METAR-TAF: